Un Karadeniz — TCTD3 — position and weather

sailwx.info

Track history (hours):
 
Tides and Currents Weather Stations Pressure Air Temp Water Temp Dewpoint Dewpoint Depression Visibility Wind Speed Wind Dir Waves Ship Positions

Un Karadeniz

Last reported at 2015-Aug-03 07:30 UTC. Time now 2015-Aug-04 03:27 UTC.
Position N 37°35' E 024°12'.

Length 193 m; draft 6.2 m.

Type: Ship (hazmat cat A). MMSI: 271002571.

Date/timePositionNaut miles runAvg speedWind from/ knotsBaromVisibWave heightAir tempDewpointWater temp
2015-Aug-03 07:30N 37°35' E 024°12'2319.9
2015-Aug-03 06:22N 37°53' E 024°30'43 1.0
2015-Aug-01 13:05N 38°29' E 024°59'3618.4
2015-Aug-01 11:09N 37°57' E 024°38'1118.1
2015-Aug-01 10:33N 37°48' E 024°32'2118.5
2015-Aug-01 09:26N 37°30' E 024°19'3418.0
2015-Aug-01 07:33N 37°04' E 023°52'1919.0
2015-Aug-01 06:34N 36°49' E 023°36'2018.8
2015-Aug-01 05:31N 36°33' E 023°22'32417.7
2015-Jul-31 11:13N 40°20' E 018°27'6019.4
2015-Jul-31 08:07N 41°05' E 017°33'1519.7
2015-Jul-31 07:21N 41°14' E 017°18'  
2015-Jul-27 14:33N 36°46' E 023°30'2019.6
2015-Jul-27 13:33N 37°02' E 023°43'2020.5
2015-Jul-27 12:33N 37°19' E 023°57'2919.7
2015-Jul-27 11:06N 37°43' E 024°18'3719.3
2015-Jul-27 09:12N 38°12' E 024°46'1319.8
2015-Jul-27 08:33N 38°24' E 024°53'7 0.2
2015-Jul-25 21:04N 38°29' E 024°59'1019.6
2015-Jul-25 20:34N 38°20' E 024°53'2619.8
2015-Jul-25 19:14N 37°57' E 024°38'1419.9
2015-Jul-25 18:33N 37°44' E 024°30'1919.3
2015-Jul-25 17:33N 37°28' E 024°17'1919.2
2015-Jul-25 16:33N 37°14' E 024°01'2019.5
2015-Jul-25 15:33N 36°58' E 023°46'2019.7
2015-Jul-25 14:33N 36°43' E 023°31'2019.6
2015-Jul-25 13:33N 36°28' E 023°15'3919.3
2015-Jul-25 11:33N 36°22' E 022°28'31519.5
2015-Jul-24 19:22N 37°49' E 016°08'1619.3
2015-Jul-24 18:33N 37°54' E 015°49'1717.0
2015-Jul-24 17:33N 38°07' E 015°36'1313.3
2015-Jul-24 16:33N 38°20' E 015°36'1919.5
2015-Jul-24 15:34N 38°31' E 015°15'1919.0
2015-Jul-24 14:33N 38°41' E 014°55'  
Track history (hours):
 
Tides and Currents Weather Stations Pressure Air Temp Water Temp Dewpoint Dewpoint Depression Visibility Wind Speed Wind Dir Waves Ship Positions

Un Karadeniz

Last reported at 2015-Aug-03 07:30 UTC. Time now 2015-Aug-04 03:27 UTC.
Position N 37°35' E 024°12'.

Length 193 m; draft 6.2 m.

Type: Ship (hazmat cat A). MMSI: 271002571.

Date/timePositionNaut miles runAvg speedWind from/ knotsBaromVisibWave heightAir tempDewpointWater temp
2015-Aug-03 07:30N 37°35' E 024°12'2319.9
2015-Aug-03 06:22N 37°53' E 024°30'43 1.0
2015-Aug-01 13:05N 38°29' E 024°59'3618.4
2015-Aug-01 11:09N 37°57' E 024°38'1118.1
2015-Aug-01 10:33N 37°48' E 024°32'2118.5
2015-Aug-01 09:26N 37°30' E 024°19'3418.0
2015-Aug-01 07:33N 37°04' E 023°52'1919.0
2015-Aug-01 06:34N 36°49' E 023°36'2018.8
2015-Aug-01 05:31N 36°33' E 023°22'32417.7
2015-Jul-31 11:13N 40°20' E 018°27'6019.4
2015-Jul-31 08:07N 41°05' E 017°33'1519.7
2015-Jul-31 07:21N 41°14' E 017°18'  
2015-Jul-27 14:33N 36°46' E 023°30'2019.6
2015-Jul-27 13:33N 37°02' E 023°43'2020.5
2015-Jul-27 12:33N 37°19' E 023°57'2919.7
2015-Jul-27 11:06N 37°43' E 024°18'3719.3
2015-Jul-27 09:12N 38°12' E 024°46'1319.8
2015-Jul-27 08:33N 38°24' E 024°53'7 0.2
2015-Jul-25 21:04N 38°29' E 024°59'1019.6
2015-Jul-25 20:34N 38°20' E 024°53'2619.8
2015-Jul-25 19:14N 37°57' E 024°38'1419.9
2015-Jul-25 18:33N 37°44' E 024°30'1919.3
2015-Jul-25 17:33N 37°28' E 024°17'1919.2
2015-Jul-25 16:33N 37°14' E 024°01'2019.5
2015-Jul-25 15:33N 36°58' E 023°46'2019.7
2015-Jul-25 14:33N 36°43' E 023°31'2019.6
2015-Jul-25 13:33N 36°28' E 023°15'3919.3
2015-Jul-25 11:33N 36°22' E 022°28'31519.5
2015-Jul-24 19:22N 37°49' E 016°08'1619.3
2015-Jul-24 18:33N 37°54' E 015°49'1717.0
2015-Jul-24 17:33N 38°07' E 015°36'1313.3
2015-Jul-24 16:33N 38°20' E 015°36'1919.5
2015-Jul-24 15:34N 38°31' E 015°15'1919.0
2015-Jul-24 14:33N 38°41' E 014°55'  

Dump ship's entire track history